sensor_id;sensor_type;location;lat;lon;timestamp;pressure;altitude;pressure_sealevel;temperature;humidity
34983;BME280;21187;50.976;13.720;2024-03-02T00:03:21;97228.31;;;12.73;56.75
34983;BME280;21187;50.976;13.720;2024-03-02T00:08:26;97219.38;;;12.65;57.14
34983;BME280;21187;50.976;13.720;2024-03-02T00:13:29;97210.47;;;12.58;57.41
34983;BME280;21187;50.976;13.720;2024-03-02T00:18:36;97210.84;;;12.60;57.52
34983;BME280;21187;50.976;13.720;2024-03-02T00:23:38;97215.91;;;12.69;57.14
34983;BME280;21187;50.976;13.720;2024-03-02T00:28:41;97215.94;;;12.72;57.09
34983;BME280;21187;50.976;13.720;2024-03-02T00:33:46;97210.47;;;12.76;57.00
34983;BME280;21187;50.976;13.720;2024-03-02T00:38:50;97221.34;;;12.79;56.94
34983;BME280;21187;50.976;13.720;2024-03-02T00:44:15;97219.03;;;12.78;56.74
34983;BME280;21187;50.976;13.720;2024-03-02T00:49:21;97219.41;;;12.76;56.84
34983;BME280;21187;50.976;13.720;2024-03-02T00:54:27;97224.47;;;12.78;56.84
34983;BME280;21187;50.976;13.720;2024-03-02T00:59:30;97220.94;;;12.77;56.91
34983;BME280;21187;50.976;13.720;2024-03-02T01:04:33;97226.78;;;12.79;56.83
34983;BME280;21187;50.976;13.720;2024-03-02T01:09:35;97219.78;;;12.78;56.77
34983;BME280;21187;50.976;13.720;2024-03-02T01:14:37;97222.13;;;12.73;57.05
34983;BME280;21187;50.976;13.720;2024-03-02T01:19:41;97219.03;;;12.67;57.24
34983;BME280;21187;50.976;13.720;2024-03-02T01:24:43;97214.38;;;12.71;57.06
34983;BME280;21187;50.976;13.720;2024-03-02T01:29:45;97222.13;;;12.69;57.28
34983;BME280;21187;50.976;13.720;2024-03-02T01:34:47;97214.34;;;12.64;57.30
34983;BME280;21187;50.976;13.720;2024-03-02T01:39:49;97212.81;;;12.59;57.31
34983;BME280;21187;50.976;13.720;2024-03-02T01:44:51;97218.63;;;12.65;57.06
34983;BME280;21187;50.976;13.720;2024-03-02T01:49:53;97221.34;;;12.69;57.17
34983;BME280;21187;50.976;13.720;2024-03-02T01:54:55;97219.78;;;12.68;57.26
34983;BME280;21187;50.976;13.720;2024-03-02T01:59:57;97211.25;;;12.69;57.22
34983;BME280;21187;50.976;13.720;2024-03-02T02:05:00;97200.78;;;12.64;57.22
34983;BME280;21187;50.976;13.720;2024-03-02T02:10:02;97197.66;;;12.55;57.52
34983;BME280;21187;50.976;13.720;2024-03-02T02:15:25;97192.59;;;12.49;57.60
34983;BME280;21187;50.976;13.720;2024-03-02T02:20:27;97202.31;;;12.43;58.01
34983;BME280;21187;50.976;13.720;2024-03-02T02:25:29;97206.56;;;12.44;58.14
34983;BME280;21187;50.976;13.720;2024-03-02T02:30:32;97201.53;;;12.46;57.99
34983;BME280;21187;50.976;13.720;2024-03-02T02:35:35;97204.66;;;12.56;57.95
34983;BME280;21187;50.976;13.720;2024-03-02T02:40:37;97201.16;;;12.62;57.53
34983;BME280;21187;50.976;13.720;2024-03-02T02:45:38;97204.25;;;12.68;57.35
34983;BME280;21187;50.976;13.720;2024-03-02T02:50:41;97198.81;;;12.68;57.47
34983;BME280;21187;50.976;13.720;2024-03-02T02:55:43;97198.44;;;12.52;57.64
34983;BME280;21187;50.976;13.720;2024-03-02T03:00:45;97192.22;;;12.47;57.95
34983;BME280;21187;50.976;13.720;2024-03-02T03:05:48;97190.28;;;12.52;57.72
34983;BME280;21187;50.976;13.720;2024-03-02T03:10:50;97190.28;;;12.59;57.47
34983;BME280;21187;50.976;13.720;2024-03-02T03:15:52;97194.97;;;12.62;57.37
34983;BME280;21187;50.976;13.720;2024-03-02T03:20:54;97197.28;;;12.63;57.22
34983;BME280;21187;50.976;13.720;2024-03-02T03:25:56;97193.03;;;12.66;57.18
34983;BME280;21187;50.976;13.720;2024-03-02T03:30:58;97192.25;;;12.62;57.12
34983;BME280;21187;50.976;13.720;2024-03-02T03:36:00;97185.25;;;12.54;57.32
34983;BME280;21187;50.976;13.720;2024-03-02T03:41:04;97191.06;;;12.52;57.35
34983;BME280;21187;50.976;13.720;2024-03-02T03:46:07;97184.09;;;12.47;57.13
34983;BME280;21187;50.976;13.720;2024-03-02T03:51:09;97182.13;;;12.37;57.32
34983;BME280;21187;50.976;13.720;2024-03-02T03:56:10;97167.00;;;12.40;57.43
34983;BME280;21187;50.976;13.720;2024-03-02T04:01:12;97185.22;;;12.32;57.50
34983;BME280;21187;50.976;13.720;2024-03-02T04:06:14;97201.88;;;12.27;57.73
34983;BME280;21187;50.976;13.720;2024-03-02T04:11:19;97191.81;;;12.27;57.97
34983;BME280;21187;50.976;13.720;2024-03-02T04:16:21;97196.06;;;12.32;57.46
34983;BME280;21187;50.976;13.720;2024-03-02T04:21:23;97206.94;;;12.36;57.55
34983;BME280;21187;50.976;13.720;2024-03-02T04:26:25;97202.69;;;12.38;57.38
34983;BME280;21187;50.976;13.720;2024-03-02T04:31:27;97197.25;;;12.38;57.39
34983;BME280;21187;50.976;13.720;2024-03-02T04:36:29;97195.66;;;12.23;57.65
34983;BME280;21187;50.976;13.720;2024-03-02T04:41:32;97207.31;;;12.20;57.74
34983;BME280;21187;50.976;13.720;2024-03-02T04:46:34;97220.47;;;12.18;58.01
34983;BME280;21187;50.976;13.720;2024-03-02T04:51:36;97225.16;;;12.21;57.91
34983;BME280;21187;50.976;13.720;2024-03-02T04:56:38;97227.47;;;12.26;57.62
34983;BME280;21187;50.976;13.720;2024-03-02T05:01:46;97240.69;;;12.27;57.52
34983;BME280;21187;50.976;13.720;2024-03-02T05:06:49;97237.16;;;12.16;58.02
34983;BME280;21187;50.976;13.720;2024-03-02T05:11:54;97251.03;;;12.00;58.33
34983;BME280;21187;50.976;13.720;2024-03-02T05:17:05;97246.00;;;11.98;58.37
34983;BME280;21187;50.976;13.720;2024-03-02T05:22:07;97253.78;;;12.04;58.38
34983;BME280;21187;50.976;13.720;2024-03-02T05:27:09;97259.19;;;12.07;58.27
34983;BME280;21187;50.976;13.720;2024-03-02T05:32:10;97268.53;;;12.13;58.13
34983;BME280;21187;50.976;13.720;2024-03-02T05:37:12;97265.81;;;12.13;58.02
34983;BME280;21187;50.976;13.720;2024-03-02T05:42:14;97271.66;;;12.15;57.93
34983;BME280;21187;50.976;13.720;2024-03-02T05:47:18;97282.16;;;12.21;57.81
34983;BME280;21187;50.976;13.720;2024-03-02T05:52:20;97289.53;;;12.24;57.65
34983;BME280;21187;50.976;13.720;2024-03-02T05:57:22;97291.84;;;12.22;58.05
34983;BME280;21187;50.976;13.720;2024-03-02T06:02:42;97304.22;;;12.19;57.93
34983;BME280;21187;50.976;13.720;2024-03-02T06:07:44;97308.91;;;12.19;57.95
34983;BME280;21187;50.976;13.720;2024-03-02T06:12:46;97310.84;;;12.22;57.90
34983;BME280;21187;50.976;13.720;2024-03-02T06:17:48;97322.09;;;12.24;57.91
34983;BME280;21187;50.976;13.720;2024-03-02T06:22:50;97318.22;;;12.25;57.81
34983;BME280;21187;50.976;13.720;2024-03-02T06:27:52;97322.13;;;12.27;57.99
34983;BME280;21187;50.976;13.720;2024-03-02T06:32:54;97310.47;;;12.27;57.76
34983;BME280;21187;50.976;13.720;2024-03-02T06:37:56;97322.88;;;12.24;57.94
34983;BME280;21187;50.976;13.720;2024-03-02T06:42:57;97317.84;;;12.26;57.77
34983;BME280;21187;50.976;13.720;2024-03-02T06:47:59;97328.31;;;12.21;58.06
34983;BME280;21187;50.976;13.720;2024-03-02T06:53:01;97344.97;;;12.23;58.08
34983;BME280;21187;50.976;13.720;2024-03-02T06:58:05;97357.78;;;12.29;58.01
34983;BME280;21187;50.976;13.720;2024-03-02T07:03:08;97358.59;;;12.34;57.89
34983;BME280;21187;50.976;13.720;2024-03-02T07:08:09;97360.13;;;12.31;57.87
34983;BME280;21187;50.976;13.720;2024-03-02T07:13:11;97363.63;;;12.31;57.68
34983;BME280;21187;50.976;13.720;2024-03-02T07:18:14;97359.75;;;12.29;57.77
34983;BME280;21187;50.976;13.720;2024-03-02T07:23:16;97361.69;;;12.32;57.61
34983;BME280;21187;50.976;13.720;2024-03-02T07:28:18;97368.69;;;12.33;57.73
34983;BME280;21187;50.976;13.720;2024-03-02T07:33:20;97362.09;;;12.34;57.73
34983;BME280;21187;50.976;13.720;2024-03-02T07:38:24;97368.69;;;12.33;57.49
34983;BME280;21187;50.976;13.720;2024-03-02T07:43:26;97375.69;;;12.34;57.92
34983;BME280;21187;50.976;13.720;2024-03-02T07:48:29;97386.91;;;12.36;57.65
34983;BME280;21187;50.976;13.720;2024-03-02T07:53:30;97389.25;;;12.38;57.71
34983;BME280;21187;50.976;13.720;2024-03-02T07:58:33;97400.13;;;12.41;57.73
34983;BME280;21187;50.976;13.720;2024-03-02T08:03:35;97400.53;;;12.43;57.34
34983;BME280;21187;50.976;13.720;2024-03-02T08:08:39;97400.91;;;12.45;57.28
34983;BME280;21187;50.976;13.720;2024-03-02T08:13:40;97405.97;;;12.43;57.59
34983;BME280;21187;50.976;13.720;2024-03-02T08:18:42;97416.81;;;12.40;57.67
34983;BME280;21187;50.976;13.720;2024-03-02T08:23:44;97416.03;;;12.39;57.65
34983;BME280;21187;50.976;13.720;2024-03-02T08:28:46;97416.78;;;12.36;57.71
34983;BME280;21187;50.976;13.720;2024-03-02T08:33:48;97427.63;;;12.29;58.03
34983;BME280;21187;50.976;13.720;2024-03-02T08:38:50;97426.81;;;12.28;57.88
34983;BME280;21187;50.976;13.720;2024-03-02T08:43:53;97436.59;;;12.37;57.79
34983;BME280;21187;50.976;13.720;2024-03-02T08:48:55;97430.00;;;12.41;57.74
34983;BME280;21187;50.976;13.720;2024-03-02T08:53:57;97427.69;;;12.43;57.93
34983;BME280;21187;50.976;13.720;2024-03-02T08:58:59;97422.69;;;12.56;57.74
34983;BME280;21187;50.976;13.720;2024-03-02T09:04:01;97415.78;;;12.66;57.71
34983;BME280;21187;50.976;13.720;2024-03-02T09:09:03;97415.41;;;12.71;57.82
34983;BME280;21187;50.976;13.720;2024-03-02T09:14:06;97422.41;;;12.79;57.83
34983;BME280;21187;50.976;13.720;2024-03-02T09:19:08;97430.19;;;12.85;57.60
34983;BME280;21187;50.976;13.720;2024-03-02T09:24:11;97430.63;;;12.94;57.39
34983;BME280;21187;50.976;13.720;2024-03-02T09:29:18;97434.16;;;13.05;57.50
34983;BME280;21187;50.976;13.720;2024-03-02T09:34:22;97436.47;;;13.10;57.30
34983;BME280;21187;50.976;13.720;2024-03-02T09:39:24;97450.47;;;13.12;57.19
34983;BME280;21187;50.976;13.720;2024-03-02T09:44:29;97451.25;;;13.06;57.21
34983;BME280;21187;50.976;13.720;2024-03-02T09:49:31;97448.91;;;13.04;57.21
34983;BME280;21187;50.976;13.720;2024-03-02T09:54:33;97445.81;;;13.09;57.30
34983;BME280;21187;50.976;13.720;2024-03-02T09:59:35;97450.09;;;13.14;57.27
34983;BME280;21187;50.976;13.720;2024-03-02T10:04:37;97451.25;;;13.17;57.23
34983;BME280;21187;50.976;13.720;2024-03-02T10:09:40;97439.63;;;13.23;57.03
34983;BME280;21187;50.976;13.720;2024-03-02T10:14:43;97435.75;;;13.28;56.71
34983;BME280;21187;50.976;13.720;2024-03-02T10:19:45;97434.56;;;13.22;56.90
34983;BME280;21187;50.976;13.720;2024-03-02T10:24:47;97430.69;;;13.19;57.02
34983;BME280;21187;50.976;13.720;2024-03-02T10:29:55;97430.31;;;13.31;56.81
34983;BME280;21187;50.976;13.720;2024-03-02T10:34:58;97410.94;;;13.40;56.86
34983;BME280;21187;50.976;13.720;2024-03-02T10:40:04;97416.03;;;13.53;56.55
34983;BME280;21187;50.976;13.720;2024-03-02T10:45:08;97406.28;;;13.62;56.27
34983;BME280;21187;50.976;13.720;2024-03-02T10:50:11;97405.53;;;13.73;56.27
34983;BME280;21187;50.976;13.720;2024-03-02T10:55:12;97398.13;;;13.95;56.12
34983;BME280;21187;50.976;13.720;2024-03-02T11:00:24;97392.22;;;14.18;55.88
34983;BME280;21187;50.976;13.720;2024-03-02T11:05:31;97390.22;;;14.40;55.32
34983;BME280;21187;50.976;13.720;2024-03-02T11:10:37;97383.94;;;14.61;54.82
34983;BME280;21187;50.976;13.720;2024-03-02T11:15:44;97393.66;;;14.70;53.51
34983;BME280;21187;50.976;13.720;2024-03-02T11:20:46;97387.38;;;14.76;53.85
34983;BME280;21187;50.976;13.720;2024-03-02T11:25:49;97398.56;;;15.00;52.60
34983;BME280;21187;50.976;13.720;2024-03-02T11:30:51;97390.38;;;15.00;51.80
34983;BME280;21187;50.976;13.720;2024-03-02T11:35:55;97392.16;;;15.28;52.10
34983;BME280;21187;50.976;13.720;2024-03-02T11:40:59;97382.97;;;15.57;51.60
34983;BME280;21187;50.976;13.720;2024-03-02T11:46:01;97385.16;;;15.76;51.32
34983;BME280;21187;50.976;13.720;2024-03-02T11:51:06;97374.22;;;15.84;50.95
34983;BME280;21187;50.976;13.720;2024-03-02T11:56:09;97367.00;;;16.04;51.03
34983;BME280;21187;50.976;13.720;2024-03-02T12:01:13;97373.91;;;16.12;50.79
34983;BME280;21187;50.976;13.720;2024-03-02T12:06:16;97372.00;;;16.09;50.22
34983;BME280;21187;50.976;13.720;2024-03-02T12:11:20;97376.06;;;15.94;50.64
34983;BME280;21187;50.976;13.720;2024-03-02T12:16:26;97366.81;;;15.80;50.56
34983;BME280;21187;50.976;13.720;2024-03-02T12:21:29;97371.94;;;15.71;50.62
34983;BME280;21187;50.976;13.720;2024-03-02T12:26:31;97368.03;;;15.72;50.66
34983;BME280;21187;50.976;13.720;2024-03-02T12:31:35;97354.81;;;15.67;50.37
34983;BME280;21187;50.976;13.720;2024-03-02T12:36:38;97349.44;;;15.60;50.20
34983;BME280;21187;50.976;13.720;2024-03-02T12:41:43;97354.13;;;15.56;50.10
34983;BME280;21187;50.976;13.720;2024-03-02T12:46:46;97351.09;;;15.46;49.57
34983;BME280;21187;50.976;13.720;2024-03-02T12:51:49;97355.34;;;15.55;49.75
34983;BME280;21187;50.976;13.720;2024-03-02T12:56:56;97357.19;;;15.65;49.53
34983;BME280;21187;50.976;13.720;2024-03-02T13:02:04;97344.72;;;15.64;49.02
34983;BME280;21187;50.976;13.720;2024-03-02T13:07:06;97361.09;;;15.64;48.60
34983;BME280;21187;50.976;13.720;2024-03-02T13:12:08;97350.25;;;15.53;48.92
34983;BME280;21187;50.976;13.720;2024-03-02T13:17:12;97354.63;;;15.47;48.89
34983;BME280;21187;50.976;13.720;2024-03-02T13:22:16;97361.44;;;15.17;48.89
34983;BME280;21187;50.976;13.720;2024-03-02T13:27:17;97359.66;;;14.92;49.20
34983;BME280;21187;50.976;13.720;2024-03-02T13:32:22;97356.97;;;14.89;49.21
34983;BME280;21187;50.976;13.720;2024-03-02T13:37:25;97356.22;;;14.81;49.32
34983;BME280;21187;50.976;13.720;2024-03-02T13:42:27;97356.28;;;14.70;49.85
34983;BME280;21187;50.976;13.720;2024-03-02T13:47:29;97361.69;;;14.77;49.85
34983;BME280;21187;50.976;13.720;2024-03-02T13:52:31;97354.25;;;14.81;49.44
34983;BME280;21187;50.976;13.720;2024-03-02T13:57:33;97365.56;;;14.80;49.50
34983;BME280;21187;50.976;13.720;2024-03-02T14:02:35;97356.25;;;14.77;49.99
34983;BME280;21187;50.976;13.720;2024-03-02T14:07:38;97352.00;;;14.69;49.68
34983;BME280;21187;50.976;13.720;2024-03-02T14:12:40;97355.94;;;14.54;50.26
34983;BME280;21187;50.976;13.720;2024-03-02T14:17:42;97367.69;;;14.36;50.21
34983;BME280;21187;50.976;13.720;2024-03-02T14:22:44;97368.47;;;14.26;50.22
34983;BME280;21187;50.976;13.720;2024-03-02T14:27:46;97362.69;;;14.09;50.63
34983;BME280;21187;50.976;13.720;2024-03-02T14:33:08;97365.81;;;13.97;50.88
34983;BME280;21187;50.976;13.720;2024-03-02T14:38:13;97366.22;;;13.99;50.88
34983;BME280;21187;50.976;13.720;2024-03-02T14:43:15;97362.72;;;14.02;50.98
34983;BME280;21187;50.976;13.720;2024-03-02T14:48:17;97361.53;;;14.03;50.61
34983;BME280;21187;50.976;13.720;2024-03-02T14:53:19;97355.69;;;14.08;50.85
34983;BME280;21187;50.976;13.720;2024-03-02T14:58:21;97350.66;;;14.03;50.32
34983;BME280;21187;50.976;13.720;2024-03-02T15:03:23;97349.88;;;13.99;50.54
34983;BME280;21187;50.976;13.720;2024-03-02T15:08:25;97353.41;;;13.89;50.53
34983;BME280;21187;50.976;13.720;2024-03-02T15:13:27;97342.50;;;13.81;50.50
34983;BME280;21187;50.976;13.720;2024-03-02T15:18:29;97340.97;;;13.77;50.79
34983;BME280;21187;50.976;13.720;2024-03-02T15:23:31;97339.81;;;13.74;51.00
34983;BME280;21187;50.976;13.720;2024-03-02T15:28:33;97344.50;;;13.70;50.72
34983;BME280;21187;50.976;13.720;2024-03-02T15:33:35;97343.72;;;13.66;50.53
34983;BME280;21187;50.976;13.720;2024-03-02T15:38:37;97341.00;;;13.59;51.02
34983;BME280;21187;50.976;13.720;2024-03-02T15:43:43;97336.31;;;13.63;50.60
34983;BME280;21187;50.976;13.720;2024-03-02T15:48:46;97336.34;;;13.56;50.79
34983;BME280;21187;50.976;13.720;2024-03-02T15:53:48;97333.63;;;13.41;50.72
34983;BME280;21187;50.976;13.720;2024-03-02T15:58:51;97334.00;;;13.43;50.75
34983;BME280;21187;50.976;13.720;2024-03-02T16:03:53;97330.88;;;13.48;50.67
34983;BME280;21187;50.976;13.720;2024-03-02T16:08:55;97324.69;;;13.52;50.78
34983;BME280;21187;50.976;13.720;2024-03-02T16:14:02;97322.34;;;13.46;50.42
34983;BME280;21187;50.976;13.720;2024-03-02T16:19:04;97324.69;;;13.37;51.09
34983;BME280;21187;50.976;13.720;2024-03-02T16:24:21;97320.03;;;13.41;50.77
34983;BME280;21187;50.976;13.720;2024-03-02T16:29:24;97326.63;;;13.47;50.73
34983;BME280;21187;50.976;13.720;2024-03-02T16:34:26;97325.47;;;13.56;50.65
34983;BME280;21187;50.976;13.720;2024-03-02T16:39:28;97324.28;;;13.64;50.66
34983;BME280;21187;50.976;13.720;2024-03-02T16:44:31;97326.22;;;13.67;50.52
34983;BME280;21187;50.976;13.720;2024-03-02T16:49:33;97330.13;;;13.66;50.54
34983;BME280;21187;50.976;13.720;2024-03-02T16:54:35;97337.88;;;13.64;50.90
34983;BME280;21187;50.976;13.720;2024-03-02T16:59:37;97334.78;;;13.62;50.61
34983;BME280;21187;50.976;13.720;2024-03-02T17:04:39;97331.28;;;13.58;51.03
34983;BME280;21187;50.976;13.720;2024-03-02T17:09:45;97338.28;;;13.52;50.92
34983;BME280;21187;50.976;13.720;2024-03-02T17:14:47;97341.00;;;13.44;51.09
34983;BME280;21187;50.976;13.720;2024-03-02T17:19:49;97345.66;;;13.40;51.33
34983;BME280;21187;50.976;13.720;2024-03-02T17:24:51;97347.22;;;13.48;51.05
34983;BME280;21187;50.976;13.720;2024-03-02T17:29:58;97344.13;;;13.46;51.19
34983;BME280;21187;50.976;13.720;2024-03-02T17:35:00;97342.16;;;13.43;51.26
34983;BME280;21187;50.976;13.720;2024-03-02T17:40:02;97338.66;;;13.36;51.22
34983;BME280;21187;50.976;13.720;2024-03-02T17:45:04;97344.88;;;13.29;51.54
34983;BME280;21187;50.976;13.720;2024-03-02T17:50:07;97342.53;;;13.20;51.35
34983;BME280;21187;50.976;13.720;2024-03-02T17:55:09;97339.00;;;13.12;51.68
34983;BME280;21187;50.976;13.720;2024-03-02T18:00:12;97334.34;;;13.06;51.68
34983;BME280;21187;50.976;13.720;2024-03-02T18:05:16;97331.25;;;13.07;51.57
34983;BME280;21187;50.976;13.720;2024-03-02T18:10:17;97324.66;;;13.08;51.45
34983;BME280;21187;50.976;13.720;2024-03-02T18:15:19;97326.97;;;13.06;51.52
34983;BME280;21187;50.976;13.720;2024-03-02T18:20:21;97330.06;;;13.05;51.12
34983;BME280;21187;50.976;13.720;2024-03-02T18:25:23;97316.09;;;12.99;51.46
34983;BME280;21187;50.976;13.720;2024-03-02T18:30:25;97314.53;;;12.98;51.40
34983;BME280;21187;50.976;13.720;2024-03-02T18:35:28;97311.44;;;12.96;51.45
34983;BME280;21187;50.976;13.720;2024-03-02T18:40:30;97304.81;;;12.86;51.47
34983;BME280;21187;50.976;13.720;2024-03-02T18:45:32;97304.41;;;12.77;51.28
34983;BME280;21187;50.976;13.720;2024-03-02T18:50:35;97304.38;;;12.62;51.37
34983;BME280;21187;50.976;13.720;2024-03-02T18:55:36;97309.81;;;12.55;51.75
34983;BME280;21187;50.976;13.720;2024-03-02T19:00:40;97302.41;;;12.56;51.67
34983;BME280;21187;50.976;13.720;2024-03-02T19:05:42;97300.50;;;12.53;51.55
34983;BME280;21187;50.976;13.720;2024-03-02T19:10:45;97293.44;;;12.37;51.61
34983;BME280;21187;50.976;13.720;2024-03-02T19:15:48;97294.13;;;12.12;52.26
34983;BME280;21187;50.976;13.720;2024-03-02T19:20:52;97294.91;;;12.09;52.60
34983;BME280;21187;50.976;13.720;2024-03-02T19:25:55;97298.03;;;12.19;52.27
34983;BME280;21187;50.976;13.720;2024-03-02T19:30:58;97301.94;;;12.25;52.02
34983;BME280;21187;50.976;13.720;2024-03-02T19:36:01;97288.75;;;12.27;52.30
34983;BME280;21187;50.976;13.720;2024-03-02T19:41:05;97287.22;;;12.29;51.92
34983;BME280;21187;50.976;13.720;2024-03-02T19:46:07;97290.31;;;12.35;51.89
34983;BME280;21187;50.976;13.720;2024-03-02T19:51:09;97284.91;;;12.39;51.74
34983;BME280;21187;50.976;13.720;2024-03-02T19:56:16;97271.72;;;12.37;51.91
34983;BME280;21187;50.976;13.720;2024-03-02T20:01:20;97271.31;;;12.35;51.82
34983;BME280;21187;50.976;13.720;2024-03-02T20:06:22;97276.38;;;12.33;51.91
34983;BME280;21187;50.976;13.720;2024-03-02T20:11:24;97267.44;;;12.29;51.89
34983;BME280;21187;50.976;13.720;2024-03-02T20:16:26;97267.03;;;12.27;51.98
34983;BME280;21187;50.976;13.720;2024-03-02T20:21:29;97267.81;;;12.24;52.02
34983;BME280;21187;50.976;13.720;2024-03-02T20:26:31;97252.28;;;12.21;52.05
34983;BME280;21187;50.976;13.720;2024-03-02T20:31:36;97246.81;;;12.13;52.32
34983;BME280;21187;50.976;13.720;2024-03-02T20:36:39;97251.84;;;12.04;52.46
34983;BME280;21187;50.976;13.720;2024-03-02T20:41:45;97247.53;;;11.96;52.39
34983;BME280;21187;50.976;13.720;2024-03-02T20:46:47;97236.25;;;11.87;52.49
34983;BME280;21187;50.976;13.720;2024-03-02T20:51:50;97235.81;;;11.85;52.58
34983;BME280;21187;50.976;13.720;2024-03-02T20:56:52;97229.66;;;11.88;52.34
34983;BME280;21187;50.976;13.720;2024-03-02T21:01:54;97231.19;;;11.89;52.45
34983;BME280;21187;50.976;13.720;2024-03-02T21:06:56;97231.19;;;11.89;52.39
34983;BME280;21187;50.976;13.720;2024-03-02T21:11:58;97226.53;;;11.86;52.53
34983;BME280;21187;50.976;13.720;2024-03-02T21:17:00;97221.88;;;11.86;52.32
34983;BME280;21187;50.976;13.720;2024-03-02T21:22:02;97212.56;;;11.83;52.73
34983;BME280;21187;50.976;13.720;2024-03-02T21:27:09;97204.78;;;11.78;52.48
34983;BME280;21187;50.976;13.720;2024-03-02T21:32:12;97212.56;;;11.76;52.52
34983;BME280;21187;50.976;13.720;2024-03-02T21:37:14;97219.50;;;11.74;52.42
34983;BME280;21187;50.976;13.720;2024-03-02T21:42:16;97218.66;;;11.59;52.82
34983;BME280;21187;50.976;13.720;2024-03-02T21:47:18;97222.88;;;11.53;52.92
34983;BME280;21187;50.976;13.720;2024-03-02T21:52:20;97223.22;;;11.40;53.06
34983;BME280;21187;50.976;13.720;2024-03-02T21:57:22;97208.84;;;11.36;53.17
34983;BME280;21187;50.976;13.720;2024-03-02T22:02:26;97207.69;;;11.37;53.23
34983;BME280;21187;50.976;13.720;2024-03-02T22:07:28;97211.16;;;11.34;53.18
34983;BME280;21187;50.976;13.720;2024-03-02T22:12:30;97203.75;;;11.24;53.52
34983;BME280;21187;50.976;13.720;2024-03-02T22:17:32;97194.41;;;11.14;53.46
34983;BME280;21187;50.976;13.720;2024-03-02T22:22:34;97192.09;;;11.20;53.88
34983;BME280;21187;50.976;13.720;2024-03-02T22:27:39;97195.25;;;11.29;54.27
34983;BME280;21187;50.976;13.720;2024-03-02T22:32:43;97201.53;;;11.40;54.31
34983;BME280;21187;50.976;13.720;2024-03-02T22:37:46;97200.38;;;11.45;54.85
34983;BME280;21187;50.976;13.720;2024-03-02T22:42:48;97202.72;;;11.46;54.94
34983;BME280;21187;50.976;13.720;2024-03-02T22:47:50;97204.63;;;11.42;55.29
34983;BME280;21187;50.976;13.720;2024-03-02T22:52:55;97208.13;;;11.46;54.85
34983;BME280;21187;50.976;13.720;2024-03-02T22:57:57;97204.28;;;11.47;55.16
34983;BME280;21187;50.976;13.720;2024-03-02T23:03:00;97203.09;;;11.45;55.00
34983;BME280;21187;50.976;13.720;2024-03-02T23:08:02;97189.91;;;11.43;55.25
34983;BME280;21187;50.976;13.720;2024-03-02T23:13:04;97183.72;;;11.46;55.27
34983;BME280;21187;50.976;13.720;2024-03-02T23:18:07;97182.16;;;11.45;54.75
34983;BME280;21187;50.976;13.720;2024-03-02T23:23:09;97174.03;;;11.45;55.10
34983;BME280;21187;50.976;13.720;2024-03-02T23:28:11;97177.13;;;11.44;55.21
34983;BME280;21187;50.976;13.720;2024-03-02T23:33:13;97171.31;;;11.42;54.88
34983;BME280;21187;50.976;13.720;2024-03-02T23:38:15;97169.00;;;11.40;54.88
34983;BME280;21187;50.976;13.720;2024-03-02T23:43:17;97164.31;;;11.37;54.82
34983;BME280;21187;50.976;13.720;2024-03-02T23:48:19;97154.25;;;11.34;55.07
34983;BME280;21187;50.976;13.720;2024-03-02T23:53:21;97146.50;;;11.32;55.16
34983;BME280;21187;50.976;13.720;2024-03-02T23:58:23;97143.38;;;11.30;55.44
